Shady Lady — WDD8618 — position and weather

sailwx.info

Track history (hours):
 
Tides and Currents Weather Stations Pressure Air Temp Water Temp Dewpoint Dewpoint Depression Visibility Wind Speed Wind Dir Waves Ship Positions

Shady Lady

Owner: SHADY LADY OF WEST SAYVILLE INC, MONTAUK, NY. More information available from US FCC via Universal Licensing System and Coast Guard Vessel Documentation Center.

Last reported at 2017-Oct-06 11:59 UTC. Time now 2017-Oct-19 09:11 UTC.
Position N 37°30' W 074°04'.
Warning: this ship's position is 12 days out of date.

Length 18 m.

Type: Pleasure craft. MMSI: 367300490.

Date/timePositionNaut miles runAvg speedWind from/ knotsBaromVisibWave heightAir tempDewpointWater temp
2017-Oct-06 11:59N 37°30' W 074°04'1 2.8
2017-Oct-06 11:29N 37°29' W 074°05'0 0.8
2017-Oct-06 11:00N 37°29' W 074°05'0 0.6
2017-Oct-06 10:30N 37°28' W 074°05'0 0.8
2017-Oct-06 09:57N 37°28' W 074°05'2 3.9
2017-Oct-06 09:29N 37°30' W 074°05'0 0.9
2017-Oct-06 08:58N 37°30' W 074°05'3 0.4
2017-Oct-06 00:40N 37°31' W 074°09'3 7.6
2017-Oct-06 00:15N 37°33' W 074°07'2 7.6
2017-Oct-05 23:59N 37°35' W 074°06'14 2.1
2017-Oct-05 17:15N 37°45' W 073°53'1 1.8
2017-Oct-05 16:49N 37°44' W 073°53'16 1.8
2017-Oct-05 08:00N 37°31' W 074°04'0 0.9
2017-Oct-05 07:29N 37°31' W 074°05'0 0.9
2017-Oct-05 07:00N 37°31' W 074°05'0 0.9
2017-Oct-05 06:29N 37°31' W 074°06'3 0.6
2017-Oct-05 01:48N 37°30' W 074°09'0 0.3
2017-Oct-05 01:15N 37°30' W 074°09'5 6.0
2017-Oct-05 00:24N 37°35' W 074°07'3 7.3
2017-Oct-04 23:59N 37°38' W 074°05'8 0.5
2017-Oct-04 09:41N 37°30' W 074°04'1 4.2
2017-Oct-04 09:28N 37°30' W 074°05'2 4.2
2017-Oct-04 08:59N 37°29' W 074°08'0 0.6
2017-Oct-04 08:30N 37°30' W 074°08'0 0.6
2017-Oct-04 08:00N 37°30' W 074°07'0 0.5
2017-Oct-04 07:30N 37°30' W 074°07'0 0.4
2017-Oct-04 07:00N 37°30' W 074°07'  
2017-Sep-29 16:37N 34°43' W 076°40'0 0.0
2017-Sep-29 16:25N 34°43' W 076°40'0 0.0
2017-Sep-29 15:58N 34°43' W 076°40'0 0.0
2017-Sep-29 15:30N 34°43' W 076°40'0 0.0
2017-Sep-29 15:00N 34°43' W 076°40'0 0.0
2017-Sep-29 14:30N 34°43' W 076°40'0 0.0
2017-Sep-29 13:59N 34°43' W 076°40'0 0.0
2017-Sep-29 13:29N 34°43' W 076°40'0 0.0
2017-Sep-29 12:59N 34°43' W 076°40'0 0.0
2017-Sep-29 12:29N 34°43' W 076°40'0 0.0
2017-Sep-29 11:59N 34°43' W 076°40'0 0.0
2017-Sep-29 11:29N 34°43' W 076°40'0 0.0
2017-Sep-29 10:59N 34°43' W 076°40'0 0.0
2017-Sep-29 10:29N 34°43' W 076°40'0 0.0
2017-Sep-29 09:59N 34°43' W 076°40'0 0.0
2017-Sep-29 09:30N 34°43' W 076°40'0 0.0
2017-Sep-29 09:00N 34°43' W 076°40'0 0.0
2017-Sep-29 08:30N 34°43' W 076°40'0 0.0
2017-Sep-29 07:57N 34°43' W 076°40'0 0.0
2017-Sep-29 07:30N 34°43' W 076°40'0 0.0
2017-Sep-29 07:00N 34°43' W 076°40'0 0.0
2017-Sep-29 06:30N 34°43' W 076°40'0 0.0
2017-Sep-29 05:58N 34°43' W 076°40'0 0.0
2017-Sep-29 05:28N 34°43' W 076°40'0 0.0
2017-Sep-29 04:52N 34°43' W 076°40'0 0.0
2017-Sep-29 04:25N 34°43' W 076°40'0 0.0
2017-Sep-29 03:59N 34°43' W 076°40'0 0.0
2017-Sep-29 03:29N 34°43' W 076°40'0 0.0
2017-Sep-29 02:59N 34°43' W 076°40'0 0.0
2017-Sep-29 02:26N 34°43' W 076°40'0 0.0
2017-Sep-29 02:00N 34°43' W 076°40'0 0.0
2017-Sep-29 01:24N 34°43' W 076°40'0 0.0
2017-Sep-29 01:00N 34°43' W 076°40'0 0.0
2017-Sep-29 00:30N 34°43' W 076°40'0 0.0
2017-Sep-29 00:00N 34°43' W 076°40'0 0.0
2017-Sep-28 23:30N 34°43' W 076°40'0 0.0
2017-Sep-28 22:57N 34°43' W 076°40'0 0.0
2017-Sep-28 22:30N 34°43' W 076°40'0 0.0
2017-Sep-28 22:00N 34°43' W 076°40'0 0.0
2017-Sep-28 21:30N 34°43' W 076°40'0 0.0
2017-Sep-28 21:00N 34°43' W 076°40'0 0.0
2017-Sep-28 20:30N 34°43' W 076°40'0 0.0
2017-Sep-28 20:00N 34°43' W 076°40'0 0.0
2017-Sep-28 19:30N 34°43' W 076°40'0 0.0
2017-Sep-28 19:00N 34°43' W 076°40'0 0.0
2017-Sep-28 18:30N 34°43' W 076°40'0 0.0
2017-Sep-28 18:00N 34°43' W 076°40'0 0.0
2017-Sep-28 17:30N 34°43' W 076°40'0 0.0
2017-Sep-28 16:59N 34°43' W 076°40'0 0.0
2017-Sep-28 16:29N 34°43' W 076°40'0 0.0
2017-Sep-28 15:59N 34°43' W 076°40'0 0.0
2017-Sep-28 15:27N 34°43' W 076°40'0 0.0
2017-Sep-28 15:00N 34°43' W 076°40'0 0.0
2017-Sep-28 14:28N 34°43' W 076°40'0 0.0
2017-Sep-28 13:58N 34°43' W 076°40'0 0.0
2017-Sep-28 13:28N 34°43' W 076°40'0 0.0
2017-Sep-28 12:58N 34°43' W 076°40'0 0.0
2017-Sep-28 12:28N 34°43' W 076°40'0 0.0
2017-Sep-28 11:58N 34°43' W 076°40'0 0.0
2017-Sep-28 11:28N 34°43' W 076°40'0 0.0
2017-Sep-28 10:58N 34°43' W 076°40'0 0.0
2017-Sep-28 10:28N 34°43' W 076°40'0 0.0
2017-Sep-28 09:58N 34°43' W 076°40'0 0.0
2017-Sep-28 09:28N 34°43' W 076°40'0 0.0
2017-Sep-28 08:58N 34°43' W 076°40'0 0.0
2017-Sep-28 08:28N 34°43' W 076°40'0 0.0
2017-Sep-28 07:58N 34°43' W 076°40'0 0.0
2017-Sep-28 07:28N 34°43' W 076°40'0 0.0
2017-Sep-28 06:58N 34°43' W 076°40'0 0.0
2017-Sep-28 06:28N 34°43' W 076°40'0 0.0
2017-Sep-28 05:58N 34°43' W 076°40'0 0.0
2017-Sep-28 05:28N 34°43' W 076°40'0 0.0
2017-Sep-28 04:58N 34°43' W 076°40'0 0.0
2017-Sep-28 04:28N 34°43' W 076°40'0 0.0
2017-Sep-28 03:58N 34°43' W 076°40'0 0.0
2017-Sep-28 03:28N 34°43' W 076°40'0 0.0
2017-Sep-28 02:58N 34°43' W 076°40'0 0.0
2017-Sep-28 02:28N 34°43' W 076°40'0 0.0
2017-Sep-28 01:58N 34°43' W 076°40'0 0.0
2017-Sep-28 01:28N 34°43' W 076°40'0 0.0
2017-Sep-28 00:55N 34°43' W 076°40'0 0.0
2017-Sep-28 00:28N 34°43' W 076°40'0 0.0
2017-Sep-27 23:58N 34°43' W 076°40'0 0.0
2017-Sep-27 23:28N 34°43' W 076°40'0 0.0
2017-Sep-27 22:58N 34°43' W 076°40'0 0.0
2017-Sep-27 22:28N 34°43' W 076°40'0 0.0
2017-Sep-27 21:58N 34°43' W 076°40'0 0.0
2017-Sep-27 21:28N 34°43' W 076°40'0 0.0
2017-Sep-27 20:58N 34°43' W 076°40'0 0.0
2017-Sep-27 20:28N 34°43' W 076°40'0 0.0
2017-Sep-27 19:58N 34°43' W 076°40'0 0.0
2017-Sep-27 19:28N 34°43' W 076°40'0 0.0
2017-Sep-27 18:58N 34°43' W 076°40'0 0.0
2017-Sep-27 18:28N 34°43' W 076°40'0 0.0
2017-Sep-27 17:58N 34°43' W 076°40'0 0.0
2017-Sep-27 17:25N 34°43' W 076°40'0 0.0
2017-Sep-27 16:58N 34°43' W 076°40'0 0.0
2017-Sep-27 16:25N 34°43' W 076°40'0 0.0
2017-Sep-27 15:58N 34°43' W 076°40'0 0.0
2017-Sep-27 15:25N 34°43' W 076°40'0 0.0
2017-Sep-27 14:55N 34°43' W 076°40'0 0.0
2017-Sep-27 14:28N 34°43' W 076°40'0 0.0
2017-Sep-27 13:58N 34°43' W 076°40'0 0.0
2017-Sep-27 13:30N 34°43' W 076°40'0 0.0
2017-Sep-27 13:00N 34°43' W 076°40'0 0.0
2017-Sep-27 12:30N 34°43' W 076°40'0 0.0
2017-Sep-27 12:00N 34°43' W 076°40'0 0.0
2017-Sep-27 11:30N 34°43' W 076°40'0 0.0
2017-Sep-27 11:00N 34°43' W 076°40'0 0.0
2017-Sep-27 10:30N 34°43' W 076°40'0 0.0
2017-Sep-27 10:00N 34°43' W 076°40'0 0.0
2017-Sep-27 09:30N 34°43' W 076°40'0 0.0
2017-Sep-27 09:00N 34°43' W 076°40'0 0.0
2017-Sep-27 08:30N 34°43' W 076°40'0 0.0
2017-Sep-27 08:00N 34°43' W 076°40'0 0.0
2017-Sep-27 07:30N 34°43' W 076°40'0 0.0
2017-Sep-27 07:00N 34°43' W 076°40'0 0.0
2017-Sep-27 06:27N 34°43' W 076°40'0 0.0
2017-Sep-27 05:54N 34°43' W 076°40'0 0.0
2017-Sep-27 05:30N 34°43' W 076°40'0 0.0
2017-Sep-27 05:00N 34°43' W 076°40'0 0.0
2017-Sep-27 04:30N 34°43' W 076°40'0 0.0
2017-Sep-27 04:00N 34°43' W 076°40'0 0.0
2017-Sep-27 03:29N 34°43' W 076°40'0 0.0
2017-Sep-27 02:59N 34°43' W 076°40'0 0.0
2017-Sep-27 02:29N 34°43' W 076°40'0 0.0
2017-Sep-27 01:59N 34°43' W 076°40'0 0.0
2017-Sep-27 01:29N 34°43' W 076°40'0 0.0
2017-Sep-27 00:56N 34°43' W 076°40'0 0.0
2017-Sep-27 00:29N 34°43' W 076°40'0 0.0
2017-Sep-26 23:59N 34°43' W 076°40'0 0.0
2017-Sep-26 23:29N 34°43' W 076°40'0 0.0
2017-Sep-26 22:59N 34°43' W 076°40'0 0.0
2017-Sep-26 22:29N 34°43' W 076°40'0 0.0
2017-Sep-26 21:59N 34°43' W 076°40'0 0.0
2017-Sep-26 21:29N 34°43' W 076°40'0 0.0
2017-Sep-26 20:59N 34°43' W 076°40'0 0.0
2017-Sep-26 20:28N 34°43' W 076°40'0 0.0
2017-Sep-26 19:58N 34°43' W 076°40'0 0.0
2017-Sep-26 19:28N 34°43' W 076°40'0 0.0
2017-Sep-26 18:59N 34°43' W 076°40'0 0.0
2017-Sep-26 18:29N 34°43' W 076°40'0 0.0
2017-Sep-26 17:59N 34°43' W 076°40'0 0.0
2017-Sep-26 17:29N 34°43' W 076°40'0 0.0
2017-Sep-26 17:00N 34°43' W 076°40'0 0.0
2017-Sep-26 16:28N 34°43' W 076°40'0 0.0
2017-Sep-26 15:58N 34°43' W 076°40'0 0.0
2017-Sep-26 15:28N 34°43' W 076°40'0 0.0
2017-Sep-26 14:59N 34°43' W 076°40'0 0.0
2017-Sep-26 14:29N 34°43' W 076°40'0 0.0
2017-Sep-26 13:59N 34°43' W 076°40'0 0.0
2017-Sep-26 13:29N 34°43' W 076°40'0 0.0
2017-Sep-26 12:59N 34°43' W 076°40'0 0.0
2017-Sep-26 12:29N 34°43' W 076°40'  
Track history (hours):
 
Tides and Currents Weather Stations Pressure Air Temp Water Temp Dewpoint Dewpoint Depression Visibility Wind Speed Wind Dir Waves Ship Positions

Shady Lady

Owner: SHADY LADY OF WEST SAYVILLE INC, MONTAUK, NY. More information available from US FCC via Universal Licensing System and Coast Guard Vessel Documentation Center.

Last reported at 2017-Oct-06 11:59 UTC. Time now 2017-Oct-19 09:11 UTC.
Position N 37°30' W 074°04'.
Warning: this ship's position is 12 days out of date.

Length 18 m.

Type: Pleasure craft. MMSI: 367300490.

Date/timePositionNaut miles runAvg speedWind from/ knotsBaromVisibWave heightAir tempDewpointWater temp
2017-Oct-06 11:59N 37°30' W 074°04'1 2.8
2017-Oct-06 11:29N 37°29' W 074°05'0 0.8
2017-Oct-06 11:00N 37°29' W 074°05'0 0.6
2017-Oct-06 10:30N 37°28' W 074°05'0 0.8
2017-Oct-06 09:57N 37°28' W 074°05'2 3.9
2017-Oct-06 09:29N 37°30' W 074°05'0 0.9
2017-Oct-06 08:58N 37°30' W 074°05'3 0.4
2017-Oct-06 00:40N 37°31' W 074°09'3 7.6
2017-Oct-06 00:15N 37°33' W 074°07'2 7.6
2017-Oct-05 23:59N 37°35' W 074°06'14 2.1
2017-Oct-05 17:15N 37°45' W 073°53'1 1.8
2017-Oct-05 16:49N 37°44' W 073°53'16 1.8
2017-Oct-05 08:00N 37°31' W 074°04'0 0.9
2017-Oct-05 07:29N 37°31' W 074°05'0 0.9
2017-Oct-05 07:00N 37°31' W 074°05'0 0.9
2017-Oct-05 06:29N 37°31' W 074°06'3 0.6
2017-Oct-05 01:48N 37°30' W 074°09'0 0.3
2017-Oct-05 01:15N 37°30' W 074°09'5 6.0
2017-Oct-05 00:24N 37°35' W 074°07'3 7.3
2017-Oct-04 23:59N 37°38' W 074°05'8 0.5
2017-Oct-04 09:41N 37°30' W 074°04'1 4.2
2017-Oct-04 09:28N 37°30' W 074°05'2 4.2
2017-Oct-04 08:59N 37°29' W 074°08'0 0.6
2017-Oct-04 08:30N 37°30' W 074°08'0 0.6
2017-Oct-04 08:00N 37°30' W 074°07'0 0.5
2017-Oct-04 07:30N 37°30' W 074°07'0 0.4
2017-Oct-04 07:00N 37°30' W 074°07'  
2017-Sep-29 16:37N 34°43' W 076°40'0 0.0
2017-Sep-29 16:25N 34°43' W 076°40'0 0.0
2017-Sep-29 15:58N 34°43' W 076°40'0 0.0
2017-Sep-29 15:30N 34°43' W 076°40'0 0.0
2017-Sep-29 15:00N 34°43' W 076°40'0 0.0
2017-Sep-29 14:30N 34°43' W 076°40'0 0.0
2017-Sep-29 13:59N 34°43' W 076°40'0 0.0
2017-Sep-29 13:29N 34°43' W 076°40'0 0.0
2017-Sep-29 12:59N 34°43' W 076°40'0 0.0
2017-Sep-29 12:29N 34°43' W 076°40'0 0.0
2017-Sep-29 11:59N 34°43' W 076°40'0 0.0
2017-Sep-29 11:29N 34°43' W 076°40'0 0.0
2017-Sep-29 10:59N 34°43' W 076°40'0 0.0
2017-Sep-29 10:29N 34°43' W 076°40'0 0.0
2017-Sep-29 09:59N 34°43' W 076°40'0 0.0
2017-Sep-29 09:30N 34°43' W 076°40'0 0.0
2017-Sep-29 09:00N 34°43' W 076°40'0 0.0
2017-Sep-29 08:30N 34°43' W 076°40'0 0.0
2017-Sep-29 07:57N 34°43' W 076°40'0 0.0
2017-Sep-29 07:30N 34°43' W 076°40'0 0.0
2017-Sep-29 07:00N 34°43' W 076°40'0 0.0
2017-Sep-29 06:30N 34°43' W 076°40'0 0.0
2017-Sep-29 05:58N 34°43' W 076°40'0 0.0
2017-Sep-29 05:28N 34°43' W 076°40'0 0.0
2017-Sep-29 04:52N 34°43' W 076°40'0 0.0
2017-Sep-29 04:25N 34°43' W 076°40'0 0.0
2017-Sep-29 03:59N 34°43' W 076°40'0 0.0
2017-Sep-29 03:29N 34°43' W 076°40'0 0.0
2017-Sep-29 02:59N 34°43' W 076°40'0 0.0
2017-Sep-29 02:26N 34°43' W 076°40'0 0.0
2017-Sep-29 02:00N 34°43' W 076°40'0 0.0
2017-Sep-29 01:24N 34°43' W 076°40'0 0.0
2017-Sep-29 01:00N 34°43' W 076°40'0 0.0
2017-Sep-29 00:30N 34°43' W 076°40'0 0.0
2017-Sep-29 00:00N 34°43' W 076°40'0 0.0
2017-Sep-28 23:30N 34°43' W 076°40'0 0.0
2017-Sep-28 22:57N 34°43' W 076°40'0 0.0
2017-Sep-28 22:30N 34°43' W 076°40'0 0.0
2017-Sep-28 22:00N 34°43' W 076°40'0 0.0
2017-Sep-28 21:30N 34°43' W 076°40'0 0.0
2017-Sep-28 21:00N 34°43' W 076°40'0 0.0
2017-Sep-28 20:30N 34°43' W 076°40'0 0.0
2017-Sep-28 20:00N 34°43' W 076°40'0 0.0
2017-Sep-28 19:30N 34°43' W 076°40'0 0.0
2017-Sep-28 19:00N 34°43' W 076°40'0 0.0
2017-Sep-28 18:30N 34°43' W 076°40'0 0.0
2017-Sep-28 18:00N 34°43' W 076°40'0 0.0
2017-Sep-28 17:30N 34°43' W 076°40'0 0.0
2017-Sep-28 16:59N 34°43' W 076°40'0 0.0
2017-Sep-28 16:29N 34°43' W 076°40'0 0.0
2017-Sep-28 15:59N 34°43' W 076°40'0 0.0
2017-Sep-28 15:27N 34°43' W 076°40'0 0.0
2017-Sep-28 15:00N 34°43' W 076°40'0 0.0
2017-Sep-28 14:28N 34°43' W 076°40'0 0.0
2017-Sep-28 13:58N 34°43' W 076°40'0 0.0
2017-Sep-28 13:28N 34°43' W 076°40'0 0.0
2017-Sep-28 12:58N 34°43' W 076°40'0 0.0
2017-Sep-28 12:28N 34°43' W 076°40'0 0.0
2017-Sep-28 11:58N 34°43' W 076°40'0 0.0
2017-Sep-28 11:28N 34°43' W 076°40'0 0.0
2017-Sep-28 10:58N 34°43' W 076°40'0 0.0
2017-Sep-28 10:28N 34°43' W 076°40'0 0.0
2017-Sep-28 09:58N 34°43' W 076°40'0 0.0
2017-Sep-28 09:28N 34°43' W 076°40'0 0.0
2017-Sep-28 08:58N 34°43' W 076°40'0 0.0
2017-Sep-28 08:28N 34°43' W 076°40'0 0.0
2017-Sep-28 07:58N 34°43' W 076°40'0 0.0
2017-Sep-28 07:28N 34°43' W 076°40'0 0.0
2017-Sep-28 06:58N 34°43' W 076°40'0 0.0
2017-Sep-28 06:28N 34°43' W 076°40'0 0.0
2017-Sep-28 05:58N 34°43' W 076°40'0 0.0
2017-Sep-28 05:28N 34°43' W 076°40'0 0.0
2017-Sep-28 04:58N 34°43' W 076°40'0 0.0
2017-Sep-28 04:28N 34°43' W 076°40'0 0.0
2017-Sep-28 03:58N 34°43' W 076°40'0 0.0
2017-Sep-28 03:28N 34°43' W 076°40'0 0.0
2017-Sep-28 02:58N 34°43' W 076°40'0 0.0
2017-Sep-28 02:28N 34°43' W 076°40'0 0.0
2017-Sep-28 01:58N 34°43' W 076°40'0 0.0
2017-Sep-28 01:28N 34°43' W 076°40'0 0.0
2017-Sep-28 00:55N 34°43' W 076°40'0 0.0
2017-Sep-28 00:28N 34°43' W 076°40'0 0.0
2017-Sep-27 23:58N 34°43' W 076°40'0 0.0
2017-Sep-27 23:28N 34°43' W 076°40'0 0.0
2017-Sep-27 22:58N 34°43' W 076°40'0 0.0
2017-Sep-27 22:28N 34°43' W 076°40'0 0.0
2017-Sep-27 21:58N 34°43' W 076°40'0 0.0
2017-Sep-27 21:28N 34°43' W 076°40'0 0.0
2017-Sep-27 20:58N 34°43' W 076°40'0 0.0
2017-Sep-27 20:28N 34°43' W 076°40'0 0.0
2017-Sep-27 19:58N 34°43' W 076°40'0 0.0
2017-Sep-27 19:28N 34°43' W 076°40'0 0.0
2017-Sep-27 18:58N 34°43' W 076°40'0 0.0
2017-Sep-27 18:28N 34°43' W 076°40'0 0.0
2017-Sep-27 17:58N 34°43' W 076°40'0 0.0
2017-Sep-27 17:25N 34°43' W 076°40'0 0.0
2017-Sep-27 16:58N 34°43' W 076°40'0 0.0
2017-Sep-27 16:25N 34°43' W 076°40'0 0.0
2017-Sep-27 15:58N 34°43' W 076°40'0 0.0
2017-Sep-27 15:25N 34°43' W 076°40'0 0.0
2017-Sep-27 14:55N 34°43' W 076°40'0 0.0
2017-Sep-27 14:28N 34°43' W 076°40'0 0.0
2017-Sep-27 13:58N 34°43' W 076°40'0 0.0
2017-Sep-27 13:30N 34°43' W 076°40'0 0.0
2017-Sep-27 13:00N 34°43' W 076°40'0 0.0
2017-Sep-27 12:30N 34°43' W 076°40'0 0.0
2017-Sep-27 12:00N 34°43' W 076°40'0 0.0
2017-Sep-27 11:30N 34°43' W 076°40'0 0.0
2017-Sep-27 11:00N 34°43' W 076°40'0 0.0
2017-Sep-27 10:30N 34°43' W 076°40'0 0.0
2017-Sep-27 10:00N 34°43' W 076°40'0 0.0
2017-Sep-27 09:30N 34°43' W 076°40'0 0.0
2017-Sep-27 09:00N 34°43' W 076°40'0 0.0
2017-Sep-27 08:30N 34°43' W 076°40'0 0.0
2017-Sep-27 08:00N 34°43' W 076°40'0 0.0
2017-Sep-27 07:30N 34°43' W 076°40'0 0.0
2017-Sep-27 07:00N 34°43' W 076°40'0 0.0
2017-Sep-27 06:27N 34°43' W 076°40'0 0.0
2017-Sep-27 05:54N 34°43' W 076°40'0 0.0
2017-Sep-27 05:30N 34°43' W 076°40'0 0.0
2017-Sep-27 05:00N 34°43' W 076°40'0 0.0
2017-Sep-27 04:30N 34°43' W 076°40'0 0.0
2017-Sep-27 04:00N 34°43' W 076°40'0 0.0
2017-Sep-27 03:29N 34°43' W 076°40'0 0.0
2017-Sep-27 02:59N 34°43' W 076°40'0 0.0
2017-Sep-27 02:29N 34°43' W 076°40'0 0.0
2017-Sep-27 01:59N 34°43' W 076°40'0 0.0
2017-Sep-27 01:29N 34°43' W 076°40'0 0.0
2017-Sep-27 00:56N 34°43' W 076°40'0 0.0
2017-Sep-27 00:29N 34°43' W 076°40'0 0.0
2017-Sep-26 23:59N 34°43' W 076°40'0 0.0
2017-Sep-26 23:29N 34°43' W 076°40'0 0.0
2017-Sep-26 22:59N 34°43' W 076°40'0 0.0
2017-Sep-26 22:29N 34°43' W 076°40'0 0.0
2017-Sep-26 21:59N 34°43' W 076°40'0 0.0
2017-Sep-26 21:29N 34°43' W 076°40'0 0.0
2017-Sep-26 20:59N 34°43' W 076°40'0 0.0
2017-Sep-26 20:28N 34°43' W 076°40'0 0.0
2017-Sep-26 19:58N 34°43' W 076°40'0 0.0
2017-Sep-26 19:28N 34°43' W 076°40'0 0.0
2017-Sep-26 18:59N 34°43' W 076°40'0 0.0
2017-Sep-26 18:29N 34°43' W 076°40'0 0.0
2017-Sep-26 17:59N 34°43' W 076°40'0 0.0
2017-Sep-26 17:29N 34°43' W 076°40'0 0.0
2017-Sep-26 17:00N 34°43' W 076°40'0 0.0
2017-Sep-26 16:28N 34°43' W 076°40'0 0.0
2017-Sep-26 15:58N 34°43' W 076°40'0 0.0
2017-Sep-26 15:28N 34°43' W 076°40'0 0.0
2017-Sep-26 14:59N 34°43' W 076°40'0 0.0
2017-Sep-26 14:29N 34°43' W 076°40'0 0.0
2017-Sep-26 13:59N 34°43' W 076°40'0 0.0
2017-Sep-26 13:29N 34°43' W 076°40'0 0.0
2017-Sep-26 12:59N 34°43' W 076°40'0 0.0
2017-Sep-26 12:29N 34°43' W 076°40'  

Dump ship's entire track history